Time;durP1;ratioP1;P1;durP2;ratioP2;P2;SDS_P1;SDS_P2;PMS_P1;PMS_P2;Temp;Humidity;BMP_temperature;BMP_pressure;BME280_temperature;BME280_humidity;BME280_pressure;Samples;Min_cycle;Max_cycle;Signal;HPM_P1;HPM_P2
2022/05/06 00:00:57;;;;;;;6.85;5.10;;;;;;;11.01;63.12;100102.72;4992726;28;20037;-93
2022/05/06 00:03:23;;;;;;;9.10;4.60;;;;;;;11.01;62.58;100087.38;4962025;28;20029;-93
2022/05/06 00:05:48;;;;;;;10.48;5.68;;;;;;;11.08;62.17;100090.69;4993310;28;20124;-93
2022/05/06 00:08:14;;;;;;;9.05;5.22;;;;;;;10.90;63.66;100083.75;4961782;28;20027;-92
2022/05/06 00:10:41;;;;;;;5.93;4.82;;;;;;;10.86;63.89;100085.31;4992841;28;20036;-92
2022/05/06 00:13:07;;;;;;;9.82;5.10;;;;;;;10.74;63.53;100084.66;4962015;28;20031;-93
2022/05/06 00:15:32;;;;;;;10.77;4.95;;;;;;;10.69;63.71;100085.41;4961094;28;20018;-93
2022/05/06 00:17:58;;;;;;;11.48;5.07;;;;;;;10.75;63.75;100093.53;4993299;28;20058;-92
2022/05/06 00:20:23;;;;;;;6.85;4.95;;;;;;;10.71;64.57;100098.63;4992257;28;20023;-93
2022/05/06 00:22:49;;;;;;;8.32;4.95;;;;;;;10.67;64.74;100097.50;4993115;28;20055;-94
2022/05/06 00:25:14;;;;;;;7.93;4.88;;;;;;;10.65;64.22;100094.25;4977147;28;20027;-93
2022/05/06 00:27:42;;;;;;;6.05;4.53;;;;;;;10.45;64.64;100084.84;4960046;28;20417;-88
2022/05/06 00:30:09;;;;;;;8.82;5.28;;;;;;;10.46;64.64;100101.81;4975929;28;20046;-92
2022/05/06 00:32:35;;;;;;;8.35;5.28;;;;;;;10.47;64.58;100100.75;4993713;28;20027;-92
2022/05/06 00:35:01;;;;;;;7.03;4.55;;;;;;;10.42;65.03;100109.59;4993249;28;20519;-93
2022/05/06 00:37:27;;;;;;;8.73;4.75;;;;;;;10.37;65.02;100109.50;4961353;28;20039;-93
2022/05/06 00:39:52;;;;;;;7.57;5.03;;;;;;;10.35;64.83;100102.75;4976443;28;20031;-93
2022/05/06 00:42:18;;;;;;;10.43;4.80;;;;;;;10.34;64.54;100110.00;4976857;28;20030;-93
2022/05/06 00:44:43;;;;;;;9.10;5.10;;;;;;;10.18;65.14;100100.06;4994206;28;20026;-92
2022/05/06 00:47:09;;;;;;;9.32;5.10;;;;;;;10.20;64.80;100109.50;4977367;28;20521;-93
2022/05/06 00:49:37;;;;;;;8.15;5.32;;;;;;;10.10;64.96;100106.66;4992063;28;20053;-92
2022/05/06 00:52:04;;;;;;;12.93;6.28;;;;;;;10.05;65.60;100107.41;4992767;28;20486;-93
2022/05/06 00:54:31;;;;;;;5.55;4.60;;;;;;;10.01;65.23;100110.84;4961210;28;20480;-93
2022/05/06 00:56:57;;;;;;;7.90;4.47;;;;;;;9.87;65.53;100103.09;4993765;28;20031;-92
2022/05/06 00:59:22;;;;;;;5.60;4.82;;;;;;;9.82;65.45;100103.03;4994854;28;20042;-92
2022/05/06 01:01:48;;;;;;;5.75;4.05;;;;;;;9.81;65.45;100103.28;4995189;28;20097;-92
2022/05/06 01:04:16;;;;;;;7.00;4.60;;;;;;;9.63;66.30;100101.63;4996388;28;20065;-93
2022/05/06 01:06:42;;;;;;;9.93;4.75;;;;;;;9.75;65.71;100110.44;4995939;28;20113;-93
2022/05/06 01:09:07;;;;;;;9.20;4.18;;;;;;;9.71;66.21;100103.91;4963829;28;20035;-93
2022/05/06 01:11:33;;;;;;;6.97;4.20;;;;;;;9.61;65.93;100103.78;4995037;28;20031;-92
2022/05/06 01:13:59;;;;;;;7.78;4.43;;;;;;;9.61;66.13;100111.84;4964448;28;20034;-92
2022/05/06 01:16:24;;;;;;;7.35;4.82;;;;;;;9.59;66.11;100116.66;4996724;28;20035;-92
2022/05/06 01:18:51;;;;;;;10.00;4.75;;;;;;;9.56;66.17;100103.69;4963089;28;20042;-92
2022/05/06 01:21:21;;;;;;;8.13;4.40;;;;;;;9.68;65.94;100107.13;4962315;28;20027;-92
2022/05/06 01:23:47;;;;;;;9.70;4.32;;;;;;;9.62;66.04;100100.03;4980025;28;20402;-92
2022/05/06 01:26:12;;;;;;;6.53;4.38;;;;;;;9.55;66.05;100110.13;4996455;28;20034;-91
2022/05/06 01:28:38;;;;;;;6.75;4.50;;;;;;;9.46;66.70;100091.72;4979459;28;20049;-93
2022/05/06 01:31:03;;;;;;;9.57;4.32;;;;;;;9.50;67.08;100103.63;4994791;28;20182;-92
2022/05/06 01:33:30;;;;;;;7.63;3.80;;;;;;;9.40;66.93;100086.47;4996227;28;20085;-93
2022/05/06 01:35:57;;;;;;;4.90;4.40;;;;;;;9.41;67.20;100091.63;4963588;28;20125;-92
2022/05/06 01:38:43;;;;;;;5.70;4.10;;;;;;;9.49;66.88;100085.03;4979835;28;20014;-92
2022/05/06 01:41:13;;;;;;;8.88;4.60;;;;;;;9.48;66.83;100069.94;4995525;28;20094;-92
2022/05/06 01:43:42;;;;;;;7.05;4.00;;;;;;;9.54;66.45;100085.09;4995046;28;20472;-92
2022/05/06 01:46:08;;;;;;;9.18;4.30;;;;;;;9.61;66.54;100090.34;4994461;28;20490;-91
2022/05/06 01:48:35;;;;;;;11.50;4.22;;;;;;;9.36;66.52;100078.09;4963514;28;20097;-90
2022/05/06 01:51:01;;;;;;;6.93;4.35;;;;;;;9.32;66.62;100082.34;4980219;28;20059;-92
2022/05/06 01:53:26;;;;;;;11.82;4.80;;;;;;;9.28;66.61;100084.69;4994759;28;20027;-90
2022/05/06 01:55:52;;;;;;;8.35;4.30;;;;;;;9.30;66.38;100092.50;4962681;28;20034;-92
2022/05/06 01:58:17;;;;;;;11.15;4.60;;;;;;;9.26;66.87;100099.41;4995854;28;20038;-91
2022/05/06 02:00:43;;;;;;;7.63;4.45;;;;;;;9.21;66.60;100089.38;4963629;28;20026;-92
2022/05/06 02:05:16;;;;;;;7.40;4.65;;;;;;;9.22;66.86;100093.72;4995028;28;20045;-92
2022/05/06 02:05:56;;;;;;;6.00;4.13;;;;;;;9.16;66.96;100093.88;4968727;28;20017;-92
2022/05/06 02:08:22;;;;;;;6.03;4.60;;;;;;;9.13;66.47;100092.47;4966705;28;20074;-92
2022/05/06 02:10:47;;;;;;;5.88;3.83;;;;;;;9.02;67.08;100094.13;4978665;28;20159;-91
2022/05/06 02:13:13;;;;;;;7.20;4.50;;;;;;;9.12;66.54;100088.16;4995772;28;20034;-91
2022/05/06 02:15:40;;;;;;;5.55;4.15;;;;;;;8.99;67.03;100075.84;4995122;28;20022;-91
2022/05/06 02:18:05;;;;;;;7.18;5.22;;;;;;;9.09;66.92;100075.22;4994434;28;20478;-92
2022/05/06 02:20:31;;;;;;;7.07;4.47;;;;;;;9.17;67.07;100093.63;4994427;28;20037;-91
2022/05/06 02:22:56;;;;;;;6.25;4.38;;;;;;;9.12;67.30;100103.47;4995297;28;20089;-92
2022/05/06 02:25:22;;;;;;;6.55;4.20;;;;;;;9.09;67.20;100097.50;4962479;28;20037;-91
2022/05/06 02:27:48;;;;;;;5.28;4.13;;;;;;;8.99;67.72;100093.81;4962594;28;20030;-91
2022/05/06 02:33:15;;;;;;;11.18;4.07;;;;;;;9.01;67.07;100087.16;4991750;28;20094;-92
2022/05/06 02:35:44;;;;;;;7.30;4.28;;;;;;;9.01;67.14;100099.78;4993069;28;20055;-91
2022/05/06 02:38:10;;;;;;;10.57;5.03;;;;;;;9.00;66.57;100096.25;4994631;28;20038;-92
2022/05/06 02:40:35;;;;;;;7.35;4.22;;;;;;;8.95;66.91;100096.16;4994494;28;20064;-91
2022/05/06 02:43:02;;;;;;;6.95;4.18;;;;;;;8.96;66.56;100100.47;4994896;28;20093;-90
2022/05/06 02:45:27;;;;;;;5.43;3.50;;;;;;;9.06;66.77;100108.72;4993593;28;20034;-92
2022/05/06 02:47:53;;;;;;;7.53;4.18;;;;;;;8.86;66.87;100087.69;4978025;28;20031;-91
2022/05/06 02:50:19;;;;;;;9.02;5.45;;;;;;;8.96;66.94;100100.47;4996223;28;20125;-92
2022/05/06 02:52:44;;;;;;;6.22;4.10;;;;;;;8.89;66.63;100097.13;4981794;28;20484;-92
2022/05/06 02:55:10;;;;;;;7.13;4.70;;;;;;;8.79;67.12;100103.09;4964141;28;20034;-91
2022/05/06 02:57:36;;;;;;;10.15;4.40;;;;;;;8.86;67.00;100097.59;4965822;28;20424;-91
2022/05/06 03:00:01;;;;;;;10.82;4.70;;;;;;;8.90;66.68;100106.81;4964846;28;20037;-92
2022/05/06 03:02:27;;;;;;;5.75;4.60;;;;;;;8.81;66.73;100108.25;4965209;28;20022;-91
2022/05/06 03:04:52;;;;;;;7.35;4.40;;;;;;;8.68;67.01;100098.59;4963768;28;20026;-92
2022/05/06 03:07:18;;;;;;;12.30;4.93;;;;;;;8.66;66.90;100104.19;4964886;28;20473;-92
2022/05/06 03:09:43;;;;;;;6.82;4.05;;;;;;;8.70;66.81;100112.59;4964137;28;20030;-93
2022/05/06 03:12:09;;;;;;;7.55;4.40;;;;;;;8.56;67.06;100100.50;4964776;28;20496;-92
2022/05/06 03:14:35;;;;;;;7.80;4.82;;;;;;;8.56;67.47;100105.88;4963505;28;20030;-92
2022/05/06 03:17:00;;;;;;;11.23;4.68;;;;;;;8.51;67.57;100106.59;4965495;28;20026;-91
2022/05/06 03:19:26;;;;;;;6.25;4.25;;;;;;;8.46;67.35;100107.25;4964921;28;20041;-92
2022/05/06 03:21:54;;;;;;;8.40;4.40;;;;;;;8.53;67.19;100119.75;4948592;28;20089;-92
2022/05/06 03:24:20;;;;;;;8.05;4.25;;;;;;;8.49;67.19;100122.91;4963473;28;20033;-92
2022/05/06 03:26:45;;;;;;;7.53;4.28;;;;;;;8.72;66.26;100123.91;4964988;28;20037;-92
2022/05/06 03:29:11;;;;;;;7.35;4.30;;;;;;;8.79;66.17;100108.47;4964947;28;20023;-93
2022/05/06 03:31:38;;;;;;;5.53;4.10;;;;;;;8.70;66.86;100129.53;4965197;28;20014;-92
2022/05/06 03:34:03;;;;;;;10.30;4.07;;;;;;;8.53;67.30;100107.16;4995967;28;20042;-90
2022/05/06 03:36:29;;;;;;;7.80;4.10;;;;;;;8.56;67.20;100127.34;4964335;28;20033;-92
2022/05/06 03:38:56;;;;;;;5.65;4.50;;;;;;;8.65;66.37;100118.69;4964920;28;20038;-93
2022/05/06 03:41:22;;;;;;;8.63;4.05;;;;;;;8.54;67.03;100108.78;4980756;28;20038;-91
2022/05/06 03:43:48;;;;;;;8.75;4.50;;;;;;;8.67;67.30;100129.16;4964065;28;20110;-92
2022/05/06 03:46:13;;;;;;;7.90;4.53;;;;;;;8.61;67.05;100122.06;4979171;28;20050;-92
2022/05/06 03:48:39;;;;;;;6.28;4.40;;;;;;;8.63;67.45;100123.47;4964663;28;20041;-91
2022/05/06 03:51:22;;;;;;;11.73;4.90;;;;;;;8.68;67.09;100125.44;4955931;28;20518;-91
2022/05/06 03:53:56;;;;;;;10.20;4.47;;;;;;;8.80;66.80;100130.75;4976618;28;20125;-91
2022/05/06 03:56:22;;;;;;;28.25;5.50;;;;;;;8.76;67.04;100133.13;4960761;28;20037;-91
2022/05/06 03:58:48;;;;;;;15.52;4.68;;;;;;;8.81;67.36;100143.16;4959638;28;20035;-91
2022/05/06 04:01:14;;;;;;;6.68;4.22;;;;;;;8.88;66.87;100151.88;4977138;28;20030;-93
2022/05/06 04:03:40;;;;;;;11.15;4.30;;;;;;;8.96;66.21;100154.19;4976851;28;20429;-91
2022/05/06 04:06:06;;;;;;;8.25;4.60;;;;;;;9.02;66.15;100165.84;4977041;28;20085;-92
2022/05/06 04:08:32;;;;;;;10.52;4.53;;;;;;;8.98;66.48;100152.09;4976385;28;20035;-92
2022/05/06 04:10:58;;;;;;;7.65;4.53;;;;;;;9.13;65.90;100161.50;4977159;28;20097;-91
2022/05/06 04:13:25;;;;;;;5.32;3.95;;;;;;;9.23;65.25;100175.94;4976914;28;20416;-92
2022/05/06 04:15:51;;;;;;;14.07;4.80;;;;;;;9.29;65.22;100174.97;4960773;28;20039;-91
2022/05/06 04:18:20;;;;;;;7.82;4.03;;;;;;;9.30;64.59;100178.50;4960433;28;20094;-91
2022/05/06 04:23:31;;;;;;;9.73;4.18;;;;;;;9.58;64.05;100174.16;4976185;28;20065;-92
2022/05/06 04:26:02;;;;;;;7.60;3.90;;;;;;;9.63;62.50;100174.22;4976626;28;20122;-92
2022/05/06 04:28:29;;;;;;;5.00;3.67;;;;;;;9.61;62.06;100161.06;4977056;28;20115;-93
2022/05/06 04:30:55;;;;;;;5.68;3.95;;;;;;;9.73;62.41;100163.66;4976935;28;20390;-93
2022/05/06 04:33:21;;;;;;;5.63;3.65;;;;;;;9.82;60.96;100151.44;4978010;28;20038;-92
2022/05/06 04:35:48;;;;;;;13.63;5.53;;;;;;;10.04;60.91;100159.63;4980675;28;20022;-92
2022/05/06 04:38:14;;;;;;;8.98;3.67;;;;;;;10.19;61.06;100168.94;4980480;28;20031;-92
2022/05/06 04:40:40;;;;;;;8.27;3.85;;;;;;;10.17;61.69;100161.16;4981147;28;20042;-91
2022/05/06 04:43:07;;;;;;;5.28;3.33;;;;;;;10.16;60.79;100159.50;4980209;28;20485;-92
2022/05/06 04:45:42;;;;;;;6.45;3.60;;;;;;;10.27;60.67;100168.53;4980254;28;20452;-91
2022/05/06 04:48:10;;;;;;;8.38;3.40;;;;;;;10.39;59.46;100171.97;4980278;28;20117;-92
2022/05/06 04:50:37;;;;;;;11.43;3.55;;;;;;;10.48;58.90;100172.41;4980386;28;20046;-92
2022/05/06 04:53:08;;;;;;;10.68;3.55;;;;;;;10.60;57.84;100166.88;4980389;28;20113;-93
2022/05/06 04:55:35;;;;;;;6.22;2.63;;;;;;;10.67;57.14;100162.94;4965161;28;20034;-92
2022/05/06 04:58:03;;;;;;;6.70;2.70;;;;;;;10.76;57.21;100151.75;4979765;28;20051;-92
2022/05/06 05:00:30;;;;;;;8.90;3.17;;;;;;;11.00;56.15;100150.44;4979014;28;20378;-91
2022/05/06 05:02:56;;;;;;;8.25;3.22;;;;;;;11.02;56.58;100147.47;4980076;28;20035;-91
2022/05/06 05:05:22;;;;;;;9.57;3.13;;;;;;;11.08;56.82;100141.91;4980908;28;20031;-91
2022/05/06 05:07:48;;;;;;;5.82;2.80;;;;;;;11.23;56.41;100151.22;4979388;28;20101;-92
2022/05/06 05:10:15;;;;;;;3.95;2.50;;;;;;;11.35;56.13;100157.28;4981345;28;20063;-93
2022/05/06 05:12:41;;;;;;;5.75;3.00;;;;;;;11.36;55.99;100153.50;4980338;28;20026;-93
2022/05/06 05:15:10;;;;;;;6.32;2.97;;;;;;;11.56;55.67;100157.44;4964857;28;20034;-92
2022/05/06 05:17:36;;;;;;;8.48;3.15;;;;;;;11.67;55.33;100169.97;4963957;28;20029;-92
2022/05/06 05:20:04;;;;;;;4.63;3.42;;;;;;;11.72;55.56;100170.00;4980002;28;20481;-91
2022/05/06 05:22:36;;;;;;;4.50;3.25;;;;;;;11.91;54.38;100176.72;4964382;28;20034;-92
2022/05/06 05:25:04;;;;;;;5.43;3.03;;;;;;;11.83;55.04;100177.16;4981690;28;20022;-90
2022/05/06 05:27:33;;;;;;;7.57;3.10;;;;;;;11.92;55.70;100172.91;4979385;28;20399;-93
2022/05/06 05:29:59;;;;;;;29.88;10.10;;;;;;;12.14;54.93;100169.31;4977854;28;20105;-92
2022/05/06 05:32:25;;;;;;;15.00;4.00;;;;;;;12.26;55.04;100178.03;4963214;28;20101;-87
2022/05/06 05:34:51;;;;;;;8.25;3.63;;;;;;;12.35;54.65;100175.69;4978040;28;20046;-87
2022/05/06 05:37:17;;;;;;;4.82;3.45;;;;;;;12.54;53.92;100168.75;4978035;28;20019;-86
2022/05/06 05:39:44;;;;;;;11.63;3.92;;;;;;;12.71;53.41;100163.16;4976141;28;20510;-86
2022/05/06 05:42:10;;;;;;;4.75;3.70;;;;;;;12.91;53.87;100173.25;4960793;28;20482;-87
2022/05/06 05:50:06;;;;;;;7.60;3.60;;;;;;;13.05;52.96;100168.19;4977718;28;20046;-88
2022/05/06 05:52:32;;;;;;;9.05;3.63;;;;;;;13.23;52.94;100168.78;4977109;28;20046;-87
2022/05/06 05:54:58;;;;;;;7.07;2.97;;;;;;;13.44;52.26;100172.38;4943940;28;20030;-85
2022/05/06 05:57:26;;;;;;;6.47;3.50;;;;;;;13.65;51.73;100175.91;4976424;28;20437;-87
2022/05/06 05:59:51;;;;;;;7.35;3.60;;;;;;;13.78;51.13;100171.84;4976928;28;20031;-87
2022/05/06 06:02:17;;;;;;;11.07;3.10;;;;;;;13.93;50.55;100178.09;4960730;28;20481;-89
2022/05/06 06:04:47;;;;;;;11.63;3.55;;;;;;;14.12;50.38;100169.44;4979283;28;20042;-86
2022/05/06 06:07:13;;;;;;;13.77;3.72;;;;;;;14.05;50.78;100167.00;4944662;28;20039;-86
2022/05/06 06:09:39;;;;;;;6.35;3.53;;;;;;;14.12;50.79;100167.53;4961177;28;20041;-86
2022/05/06 06:12:05;;;;;;;7.45;3.88;;;;;;;14.25;50.63;100168.06;4961257;28;20048;-87
2022/05/06 06:14:31;;;;;;;7.90;4.55;;;;;;;14.56;49.27;100176.97;4943750;28;20473;-87
2022/05/06 06:16:59;;;;;;;11.73;4.50;;;;;;;14.67;48.65;100169.59;4979082;28;20113;-89
2022/05/06 06:19:25;;;;;;;9.27;4.32;;;;;;;14.78;48.38;100175.84;4928066;28;20117;-88
2022/05/06 06:21:51;;;;;;;9.27;4.53;;;;;;;14.89;49.01;100172.78;4960852;28;20050;-87
2022/05/06 06:24:20;;;;;;;14.40;5.50;;;;;;;14.99;48.62;100161.09;4961026;28;20030;-88
2022/05/06 06:26:45;;;;;;;8.57;5.38;;;;;;;15.22;48.03;100173.19;4943877;28;20031;-87
2022/05/06 06:29:12;;;;;;;9.20;5.22;;;;;;;15.33;47.26;100172.03;4944422;28;20037;-88
2022/05/06 06:31:38;;;;;;;9.48;5.10;;;;;;;15.53;46.84;100164.88;4960330;28;20027;-88
2022/05/06 06:34:04;;;;;;;35.08;6.07;;;;;;;15.61;46.35;100152.59;4959764;28;20133;-89
2022/05/06 06:36:30;;;;;;;84.05;7.80;;;;;;;15.80;46.33;100161.69;4944396;28;20073;-87
2022/05/06 06:38:55;;;;;;;11.68;4.63;;;;;;;15.89;46.65;100159.19;4959781;28;20039;-90
2022/05/06 06:41:22;;;;;;;11.18;4.80;;;;;;;15.98;46.36;100152.06;4963846;28;20038;-92
2022/05/06 06:43:48;;;;;;;21.65;4.85;;;;;;;16.24;45.51;100155.34;4960481;28;20042;-92
2022/05/06 06:46:15;;;;;;;7.22;4.05;;;;;;;16.30;44.84;100146.03;4946616;28;20022;-93
2022/05/06 06:48:42;;;;;;;9.55;3.67;;;;;;;16.53;44.58;100151.78;4962759;28;20034;-93
2022/05/06 06:51:09;;;;;;;13.10;4.05;;;;;;;16.62;44.85;100141.06;4960422;28;20528;-92
2022/05/06 06:53:35;;;;;;;9.45;3.50;;;;;;;16.62;44.75;100138.34;4962307;28;20030;-94
2022/05/06 06:56:01;;;;;;;7.05;3.30;;;;;;;16.88;44.36;100147.84;4978574;28;20030;-93
2022/05/06 06:58:27;;;;;;;7.03;3.10;;;;;;;17.08;44.27;100143.25;4978369;28;20022;-93
2022/05/06 07:00:53;;;;;;;11.40;3.13;;;;;;;17.20;43.83;100121.03;4977811;28;20069;-93
2022/05/06 07:03:20;;;;;;;6.47;2.75;;;;;;;17.35;43.67;100137.16;4977539;28;20030;-94
2022/05/06 07:14:06;;;;;;;8.00;3.80;;;;;;;17.94;42.07;100129.44;4970441;28;20042;-91
2022/05/06 07:16:35;;;;;;;6.47;3.28;;;;;;;18.11;40.62;100131.59;4981479;28;20027;-91
2022/05/06 07:19:06;;;;;;;7.28;2.50;;;;;;;18.31;38.06;100142.13;4979148;28;20031;-91
2022/05/06 07:21:31;;;;;;;4.65;2.58;;;;;;;18.41;35.65;100143.03;4961298;28;20478;-94
2022/05/06 07:23:58;;;;;;;8.90;2.90;;;;;;;18.50;34.28;100142.03;4961965;28;20042;-90
2022/05/06 07:26:25;;;;;;;8.82;2.33;;;;;;;18.45;35.05;100117.63;4976608;28;20129;-92
2022/05/06 07:28:51;;;;;;;3.15;2.00;;;;;;;18.66;33.81;100128.91;4977240;28;20030;-92
2022/05/06 07:31:20;;;;;;;12.93;2.58;;;;;;;18.91;33.73;100154.91;4976838;28;20026;-92
2022/05/06 07:33:46;;;;;;;6.35;1.90;;;;;;;19.00;30.32;100143.25;4976070;28;20030;-92
2022/05/06 07:36:13;;;;;;;6.80;2.15;;;;;;;18.97;29.42;100144.69;4976694;28;20494;-92
2022/05/06 07:38:38;;;;;;;4.40;2.05;;;;;;;19.06;29.45;100131.13;4976597;28;20039;-94
2022/05/06 07:41:04;;;;;;;5.85;2.20;;;;;;;19.24;29.71;100141.09;4960405;28;20101;-93
2022/05/06 07:43:34;;;;;;;3.97;1.92;;;;;;;19.31;29.93;100135.22;4977077;28;20031;-90
2022/05/06 07:45:59;;;;;;;4.93;2.40;;;;;;;19.33;30.26;100124.78;4966133;28;20128;-92
2022/05/06 07:48:29;;;;;;;5.88;2.03;;;;;;;19.50;29.13;100138.56;4979947;28;20042;-92
2022/05/06 07:50:58;;;;;;;5.45;2.05;;;;;;;19.68;29.16;100133.25;4961579;28;20039;-92
2022/05/06 07:53:29;;;;;;;4.28;2.10;;;;;;;19.69;29.63;100135.66;4978770;28;20031;-92
2022/05/06 07:55:55;;;;;;;7.00;2.03;;;;;;;19.75;29.16;100133.63;4961426;28;20039;-92
2022/05/06 07:58:21;;;;;;;7.25;2.40;;;;;;;19.84;28.66;100128.22;4946889;28;20035;-92
2022/05/06 08:00:50;;;;;;;5.55;2.20;;;;;;;19.99;28.28;100142.31;4977466;28;20037;-88
2022/05/06 08:06:02;;;;;;;4.30;1.88;;;;;;;20.03;26.96;100142.50;4979587;28;20054;-91
2022/05/06 08:08:27;;;;;;;6.32;2.20;;;;;;;19.97;26.94;100136.34;4979988;28;20039;-92
2022/05/06 08:10:54;;;;;;;9.23;2.20;;;;;;;20.01;27.10;100136.53;4983067;28;20087;-91
2022/05/06 08:13:21;;;;;;;7.93;2.00;;;;;;;20.14;27.41;100140.31;4968048;28;20061;-91
2022/05/06 08:15:49;;;;;;;5.07;1.98;;;;;;;20.26;27.76;100142.47;4968069;28;20102;-92
2022/05/06 08:18:15;;;;;;;4.78;2.17;;;;;;;20.30;27.40;100136.06;4981156;28;20033;-91
2022/05/06 08:20:41;;;;;;;4.15;2.03;;;;;;;20.43;26.82;100153.47;4968775;28;20501;-93
2022/05/06 08:23:08;;;;;;;4.32;2.10;;;;;;;20.53;26.60;100134.06;4967505;28;20065;-92
2022/05/06 08:25:38;;;;;;;8.45;2.13;;;;;;;20.49;26.32;100129.53;4965815;28;20437;-92
2022/05/06 08:28:07;;;;;;;4.63;2.10;;;;;;;20.42;26.93;100134.63;4982663;28;20079;-92
2022/05/06 08:30:33;;;;;;;7.63;2.17;;;;;;;20.35;26.28;100138.63;4983811;28;20027;-93
2022/05/06 08:32:59;;;;;;;7.68;2.15;;;;;;;20.37;26.65;100130.91;4966883;28;20054;-92
2022/05/06 08:35:25;;;;;;;5.68;2.50;;;;;;;20.45;26.61;100153.19;4982291;28;20046;-92
2022/05/06 08:37:52;;;;;;;6.03;2.10;;;;;;;20.46;26.33;100150.13;4965068;28;20023;-92
2022/05/06 08:40:20;;;;;;;7.22;1.85;;;;;;;20.55;26.40;100150.16;4966163;28;20085;-91
2022/05/06 08:42:46;;;;;;;11.85;2.50;;;;;;;20.68;26.82;100159.41;4969774;28;20043;-93
2022/05/06 08:50:55;;;;;;;6.72;2.38;;;;;;;21.04;26.21;100152.88;4976850;28;20061;-91
2022/05/06 08:53:27;;;;;;;6.07;1.90;;;;;;;21.25;25.92;100133.91;4972422;28;20045;-92
2022/05/06 08:55:55;;;;;;;5.32;2.05;;;;;;;21.26;25.41;100133.59;4955164;28;20033;-91
2022/05/06 08:58:22;;;;;;;6.30;2.13;;;;;;;21.16;26.13;100142.13;4982318;28;20030;-93
2022/05/06 09:00:48;;;;;;;7.10;2.80;;;;;;;21.02;26.39;100130.50;4952655;28;20469;-93
2022/05/06 09:03:15;;;;;;;8.38;2.05;;;;;;;21.13;26.56;100134.56;4968774;28;20034;-92
2022/05/06 09:05:51;;;;;;;4.97;2.38;;;;;;;21.29;26.54;100143.09;5000634;28;20026;-92
2022/05/06 09:08:21;;;;;;;7.53;2.15;;;;;;;21.28;26.04;100141.50;4971129;28;20038;-93
2022/05/06 09:11:08;;;;;;;8.55;2.10;;;;;;;21.28;26.55;100146.97;4986984;28;20037;-94
2022/05/06 09:13:39;;;;;;;16.85;2.80;;;;;;;21.32;27.37;100146.00;4985203;28;20058;-92
2022/05/06 09:16:44;;;;;;;13.90;2.97;;;;;;;21.46;27.80;100137.66;4970296;28;20034;-92
2022/05/06 09:19:24;;;;;;;4.15;2.15;;;;;;;21.49;27.72;100137.00;4972091;28;20079;-92
2022/05/06 09:22:17;;;;;;;7.97;2.40;;;;;;;21.59;27.56;100133.13;4970575;28;20038;-93
2022/05/06 09:24:51;;;;;;;7.30;2.60;;;;;;;21.49;27.95;100122.50;4986986;28;20031;-92
2022/05/06 09:27:18;;;;;;;7.43;3.30;;;;;;;21.46;28.15;100113.00;4969852;28;20586;-92
2022/05/06 09:29:43;;;;;;;7.80;2.78;;;;;;;21.84;28.49;100134.22;4986709;28;20026;-93
2022/05/06 09:32:12;;;;;;;10.30;3.70;;;;;;;21.82;28.63;100108.28;4986895;28;20030;-93
2022/05/06 09:34:39;;;;;;;5.63;2.70;;;;;;;21.90;27.73;100110.19;4986223;28;20030;-93
2022/05/06 09:37:06;;;;;;;8.52;2.92;;;;;;;22.03;27.16;100122.88;4952569;28;20482;-92
2022/05/06 09:39:32;;;;;;;15.63;4.15;;;;;;;21.86;27.89;100115.50;4984810;28;20026;-94
2022/05/06 09:42:02;;;;;;;9.57;2.78;;;;;;;21.97;27.72;100107.75;4967031;28;20145;-93
2022/05/06 09:44:28;;;;;;;10.82;3.33;;;;;;;22.12;27.23;100129.19;4968161;28;20010;-92
2022/05/06 09:47:15;;;;;;;8.40;2.85;;;;;;;22.17;26.59;100122.69;4981023;28;20460;-93
2022/05/06 09:49:45;;;;;;;7.90;2.70;;;;;;;22.14;27.04;100110.44;4983245;28;20498;-91
2022/05/06 09:52:15;;;;;;;9.05;3.47;;;;;;;21.95;27.53;100120.97;4935459;28;20054;-92
2022/05/06 09:54:41;;;;;;;4.55;2.17;;;;;;;22.09;27.26;100115.31;4981333;28;20038;-94
2022/05/06 09:57:08;;;;;;;3.78;2.38;;;;;;;22.16;27.22;100129.31;4963819;28;20022;-92
2022/05/06 09:59:35;;;;;;;6.78;2.90;;;;;;;22.01;27.27;100119.66;4980494;28;20042;-91
2022/05/06 10:02:01;;;;;;;5.68;2.80;;;;;;;22.20;26.67;100114.63;4963652;28;20034;-93
2022/05/06 10:04:26;;;;;;;8.57;3.47;;;;;;;22.23;27.24;100112.34;4980752;28;20031;-93
2022/05/06 10:06:52;;;;;;;4.07;2.30;;;;;;;22.10;26.27;100119.63;4979261;28;20039;-92
2022/05/06 10:09:21;;;;;;;5.28;2.53;;;;;;;22.26;26.11;100114.47;4981029;28;20027;-90
2022/05/06 10:11:47;;;;;;;15.90;4.00;;;;;;;22.39;27.12;100105.19;4979713;28;20117;-93
2022/05/06 10:14:14;;;;;;;6.68;2.72;;;;;;;22.62;26.60;100103.00;4965014;28;20038;-93
2022/05/06 10:16:41;;;;;;;6.43;2.20;;;;;;;22.75;25.80;100095.66;4979278;28;20501;-93
2022/05/06 10:19:39;;;;;;;6.80;2.20;;;;;;;22.72;26.13;100099.06;4979697;28;20109;-93
2022/05/06 10:22:06;;;;;;;6.55;2.33;;;;;;;22.79;25.87;100091.91;4949010;28;20042;-92
2022/05/06 10:24:41;;;;;;;8.32;2.55;;;;;;;22.83;25.92;100085.72;4980640;28;20036;-92
2022/05/06 10:33:17;;;;;;;10.10;2.17;;;;;;;22.90;25.83;100078.59;4980774;28;20042;-92
2022/05/06 10:35:47;;;;;;;9.80;2.70;;;;;;;22.58;25.65;100069.91;4979998;28;20390;-93
2022/05/06 10:38:19;;;;;;;11.75;2.63;;;;;;;22.85;25.58;100081.53;4980480;28;20019;-92
2022/05/06 10:40:58;;;;;;;6.05;2.72;;;;;;;23.03;25.10;100065.75;4965133;28;20126;-92
2022/05/06 10:43:53;;;;;;;8.27;2.90;;;;;;;23.05;24.97;100071.72;4962788;28;20447;-92
2022/05/06 10:46:57;;;;;;;6.50;2.42;;;;;;;23.12;24.67;100063.75;4967379;28;20046;-90
2022/05/06 10:49:34;;;;;;;8.05;2.47;;;;;;;23.16;25.04;100059.19;4941055;29;20040;-93
2022/05/06 10:52:27;;;;;;;14.13;3.65;;;;;;;23.27;25.06;100054.09;4941867;29;20059;-93
2022/05/06 10:55:03;;;;;;;12.50;3.33;;;;;;;23.30;24.60;100049.84;4934217;29;20058;-94
2022/05/06 10:57:51;;;;;;;11.57;2.63;;;;;;;23.51;23.74;100058.88;4940206;29;20043;-92
2022/05/06 11:00:20;;;;;;;13.00;3.28;;;;;;;23.50;23.63;100054.50;4942150;29;20462;-93
2022/05/06 11:02:45;;;;;;;13.13;3.33;;;;;;;23.53;23.92;100037.34;4921992;29;20491;-89
2022/05/06 11:05:14;;;;;;;14.90;4.13;;;;;;;23.63;23.52;100038.84;4923185;29;20145;-90
2022/05/06 11:07:41;;;;;;;12.07;3.20;;;;;;;23.65;23.71;100039.31;4921196;29;20490;-90
2022/05/06 11:10:22;;;;;;;6.13;2.20;;;;;;;23.59;22.61;100038.75;4922176;29;20029;-93
2022/05/06 11:12:49;;;;;;;9.25;2.70;;;;;;;23.50;22.83;100038.00;4935768;29;20035;-92
2022/05/06 11:15:27;;;;;;;15.75;2.70;;;;;;;23.46;22.63;100028.84;4921202;29;20044;-92
2022/05/06 11:17:55;;;;;;;15.65;3.15;;;;;;;23.21;23.71;100022.47;4937884;29;20597;-93
2022/05/06 11:20:26;;;;;;;4.68;1.83;;;;;;;23.40;22.90;100031.00;4927656;28;20047;-92
2022/05/06 11:22:53;;;;;;;8.48;2.58;;;;;;;23.28;23.23;100030.16;4979158;28;20038;-92
2022/05/06 11:25:22;;;;;;;5.53;2.20;;;;;;;23.15;23.47;100032.84;4978646;28;20018;-91
2022/05/06 11:27:52;;;;;;;5.93;2.13;;;;;;;23.18;22.89;100025.91;4982059;28;20027;-91
2022/05/06 11:30:19;;;;;;;6.07;3.47;;;;;;;23.17;23.39;100024.28;4961944;28;20122;-92
2022/05/06 11:32:53;;;;;;;8.98;3.70;;;;;;;23.24;23.36;100020.97;4964491;28;20129;-91
2022/05/06 11:35:33;;;;;;;10.65;2.50;;;;;;;23.46;23.42;100020.59;4979089;28;20034;-93
2022/05/06 11:37:59;;;;;;;4.38;2.00;;;;;;;23.29;22.70;100021.56;4979830;28;20512;-92
2022/05/06 11:42:59;;;;;;;6.00;2.00;;;;;;;23.13;22.85;100007.66;4979485;28;20580;-92
2022/05/06 11:48:09;;;;;;;6.30;2.10;;;;;;;22.73;23.71;99999.09;4963718;28;20038;-87
2022/05/06 11:50:37;;;;;;;4.10;2.45;;;;;;;23.18;23.73;99999.22;4963503;28;20045;-87
2022/05/06 11:53:08;;;;;;;16.20;12.40;;;;;;;23.27;24.29;100003.81;4980353;28;20057;-86
2022/05/06 11:55:41;;;;;;;5.57;2.65;;;;;;;23.22;24.00;99976.53;4996393;28;20049;-88
2022/05/06 11:58:12;;;;;;;3.67;1.83;;;;;;;23.34;23.36;99987.56;4996925;28;20459;-92
2022/05/06 12:00:38;;;;;;;3.72;2.00;;;;;;;23.45;23.34;99987.94;4964750;28;20102;-89
2022/05/06 12:03:07;;;;;;;9.25;2.47;;;;;;;23.41;23.29;99974.09;4964856;28;20029;-89
2022/05/06 12:05:33;;;;;;;4.47;2.47;;;;;;;23.63;23.41;99983.06;4981120;28;20033;-89
2022/05/06 12:07:59;;;;;;;4.15;2.10;;;;;;;23.71;22.99;99984.91;4998852;28;20535;-91
2022/05/06 12:10:32;;;;;;;7.65;2.33;;;;;;;23.65;23.06;99970.56;4963322;28;20026;-90